Time;durP1;ratioP1;P1;durP2;ratioP2;P2;SDS_P1;SDS_P2;PMS_P1;PMS_P2;Temp;Humidity;BMP_temperature;BMP_pressure;BME280_temperature;BME280_humidity;BME280_pressure;Samples;Min_cycle;Max_cycle;Signal;HPM_P1;HPM_P2
2023/09/08 00:00:49;;;;;;;5.10;3.70;;;;;;;25.48;34.28;101157.31;103180;1297;69328;-87
2023/09/08 00:03:15;;;;;;;3.60;3.30;;;;;;;25.48;34.34;101162.00;103276;1302;69156;-86
2023/09/08 00:05:41;;;;;;;3.70;3.30;;;;;;;25.48;34.28;101162.11;103333;1301;69200;-86
2023/09/08 00:08:06;;;;;;;3.10;2.80;;;;;;;25.48;34.23;101160.98;103170;1299;69286;-86
2023/09/08 00:10:32;;;;;;;4.10;3.20;;;;;;;25.48;34.28;101160.37;103257;1297;69274;-87
2023/09/08 00:13:05;;;;;;;4.40;3.30;;;;;;;25.48;34.14;101158.97;103427;1301;69284;-92
2023/09/08 00:15:33;;;;;;;5.30;3.90;;;;;;;25.47;34.28;101157.33;103218;1302;73728;-86
2023/09/08 00:17:59;;;;;;;3.80;2.90;;;;;;;25.47;34.17;101155.27;103251;1302;69339;-87
2023/09/08 00:20:24;;;;;;;5.30;3.90;;;;;;;25.47;34.39;101155.06;103342;1296;69298;-86
2023/09/08 00:22:50;;;;;;;3.60;3.20;;;;;;;25.46;34.29;101157.95;103335;1297;69297;-86
2023/09/08 00:25:15;;;;;;;3.50;3.20;;;;;;;25.46;34.30;101155.53;103282;1297;69269;-87
2023/09/08 00:27:41;;;;;;;3.70;3.30;;;;;;;25.46;34.33;101155.53;103166;1302;72312;-86
2023/09/08 00:30:07;;;;;;;3.90;3.50;;;;;;;25.45;34.45;101147.90;103352;1296;69305;-86
2023/09/08 00:32:32;;;;;;;6.20;3.30;;;;;;;25.46;34.50;101150.08;103294;1297;69288;-86
2023/09/08 00:34:58;;;;;;;7.00;3.60;;;;;;;25.45;34.46;101153.02;103303;1299;69215;-86
2023/09/08 00:37:24;;;;;;;3.40;3.10;;;;;;;25.46;34.31;101153.17;103283;1297;69287;-86
2023/09/08 00:40:01;;;;;;;3.50;3.20;;;;;;;25.45;34.39;101147.88;103300;1300;69303;-92
2023/09/08 00:42:26;;;;;;;5.50;3.40;;;;;;;25.44;34.52;101146.08;103265;1301;69351;-86
2023/09/08 00:44:51;;;;;;;6.90;3.70;;;;;;;25.45;34.40;101143.64;103368;1303;69264;-86
2023/09/08 00:47:17;;;;;;;3.70;3.10;;;;;;;25.45;34.37;101145.96;103276;1297;69247;-86
2023/09/08 00:49:42;;;;;;;4.00;3.20;;;;;;;25.44;34.30;101148.48;103069;1303;69347;-86
2023/09/08 00:52:08;;;;;;;4.10;3.20;;;;;;;25.44;34.34;101146.80;103314;1301;69246;-86
2023/09/08 00:54:33;;;;;;;3.90;3.00;;;;;;;25.44;34.55;101146.74;103212;1301;69220;-86
2023/09/08 00:56:59;;;;;;;4.70;3.10;;;;;;;25.44;34.61;101140.61;103268;1299;69282;-86
2023/09/08 00:59:25;;;;;;;4.00;2.90;;;;;;;25.44;34.59;101138.23;103143;1302;69291;-86
2023/09/08 01:01:51;;;;;;;3.80;3.40;;;;;;;25.44;34.44;101139.77;103274;1301;69271;-87
2023/09/08 01:04:16;;;;;;;3.90;3.20;;;;;;;25.43;34.41;101140.30;103230;1299;67234;-87
2023/09/08 01:06:50;;;;;;;4.00;3.30;;;;;;;25.44;34.69;101139.47;103153;1297;69313;-91
2023/09/08 01:09:15;;;;;;;3.70;3.30;;;;;;;25.43;34.43;101137.14;103093;1297;69226;-86
2023/09/08 01:11:41;;;;;;;4.10;3.30;;;;;;;25.44;34.37;101133.52;103116;1300;69204;-86
2023/09/08 01:14:07;;;;;;;4.30;3.10;;;;;;;25.43;34.49;101135.88;103330;1302;69271;-86
2023/09/08 01:16:33;;;;;;;6.10;3.40;;;;;;;25.43;34.65;101134.58;103368;1299;69215;-86
2023/09/08 01:18:58;;;;;;;3.10;2.80;;;;;;;25.43;34.38;101134.27;103288;1297;69313;-86
2023/09/08 01:21:42;;;;;;;4.20;3.20;;;;;;;25.43;34.67;101130.62;103193;1297;69148;-86
2023/09/08 01:24:31;;;;;;;3.20;2.90;;;;;;;25.42;34.72;101134.83;103174;1302;69256;-86
2023/09/08 01:26:56;;;;;;;;;;;;;;;25.42;34.76;101139.52;103556;1297;69294;-86
2023/09/08 01:29:25;;;;;;;4.60;3.20;;;;;;;25.40;34.74;101138.45;103254;1302;70800;-86
2023/09/08 01:31:51;;;;;;;3.40;3.10;;;;;;;25.40;34.66;101137.89;103300;1304;69282;-86
2023/09/08 01:34:17;;;;;;;4.00;3.60;;;;;;;25.40;34.57;101134.52;103729;1297;69271;-87
2023/09/08 01:36:45;;;;;;;3.40;3.10;;;;;;;25.41;34.49;101136.12;104054;1297;66912;-93
2023/09/08 01:39:10;;;;;;;3.40;3.00;;;;;;;25.41;34.75;101136.42;103085;1298;69254;-86
2023/09/08 01:41:35;;;;;;;4.90;3.30;;;;;;;25.41;34.63;101131.38;103323;1306;69328;-86
2023/09/08 01:44:05;;;;;;;4.10;3.20;;;;;;;25.41;34.63;101132.05;103285;1302;69266;-86
2023/09/08 01:46:30;;;;;;;3.60;3.10;;;;;;;25.41;34.84;101133.35;103250;1297;69219;-86
2023/09/08 01:48:56;;;;;;;3.50;3.10;;;;;;;25.42;34.75;101139.11;103292;1298;69294;-87
2023/09/08 01:51:21;;;;;;;3.50;3.00;;;;;;;25.42;34.69;101141.00;103119;1299;67924;-86
2023/09/08 01:53:47;;;;;;;4.40;3.20;;;;;;;25.42;34.84;101141.84;103265;1301;71023;-86
2023/09/08 01:56:12;;;;;;;5.70;3.50;;;;;;;25.42;34.56;101140.96;103294;1311;69294;-86
2023/09/08 01:58:37;;;;;;;3.00;2.70;;;;;;;25.42;34.67;101139.83;103347;1301;69325;-86
2023/09/08 02:01:05;;;;;;;3.50;3.00;;;;;;;25.43;34.79;101138.64;103315;1308;69749;-86
2023/09/08 02:03:39;;;;;;;3.90;3.30;;;;;;;25.42;34.68;101140.35;103241;1297;69179;-92
2023/09/08 02:06:05;;;;;;;3.10;2.80;;;;;;;25.42;34.74;101144.77;103318;1297;68916;-87
2023/09/08 02:08:30;;;;;;;4.40;3.00;;;;;;;25.42;34.82;101144.01;103349;1297;69244;-86
2023/09/08 02:10:56;;;;;;;4.30;3.10;;;;;;;25.42;34.96;101146.47;103512;1301;69279;-86
2023/09/08 02:13:21;;;;;;;3.80;3.00;;;;;;;25.42;35.04;101146.16;103680;1297;69209;-87
2023/09/08 02:15:47;;;;;;;3.90;3.30;;;;;;;25.42;35.01;101147.77;103709;1302;69248;-87
2023/09/08 02:18:13;;;;;;;4.00;3.10;;;;;;;25.42;34.79;101148.17;103745;1302;69281;-86
2023/09/08 02:20:38;;;;;;;3.50;2.90;;;;;;;25.42;34.86;101147.86;103843;1296;67265;-86
2023/09/08 02:23:05;;;;;;;3.70;3.00;;;;;;;25.42;34.74;101145.06;103376;1303;69271;-86
2023/09/08 02:25:31;;;;;;;3.60;3.10;;;;;;;25.41;35.11;101146.95;103343;1296;69231;-86
2023/09/08 02:27:56;;;;;;;4.30;3.30;;;;;;;25.41;34.90;101147.70;103376;1297;69325;-87
2023/09/08 02:32:55;;;;;;;4.50;3.30;;;;;;;25.41;34.86;101151.02;103359;1297;69242;-86
2023/09/08 02:35:23;;;;;;;5.70;3.20;;;;;;;25.41;35.04;101144.42;103299;1297;69220;-86
2023/09/08 02:37:48;;;;;;;3.30;3.00;;;;;;;25.41;34.89;101144.47;103270;1300;69265;-86
2023/09/08 02:40:14;;;;;;;4.20;3.40;;;;;;;25.41;34.84;101141.59;103276;1302;69242;-86
2023/09/08 02:42:39;;;;;;;3.10;2.80;;;;;;;25.41;35.13;101144.26;103275;1297;69319;-86
2023/09/08 02:45:05;;;;;;;3.30;2.80;;;;;;;25.41;35.15;101143.80;103241;1297;69190;-86
2023/09/08 02:47:30;;;;;;;3.60;2.90;;;;;;;25.41;34.97;101142.20;103250;1302;69103;-86
2023/09/08 02:49:57;;;;;;;4.30;3.20;;;;;;;25.41;35.23;101144.93;103303;1298;69278;-86
2023/09/08 02:52:22;;;;;;;4.50;3.10;;;;;;;25.40;35.05;101146.54;103318;1297;69186;-86
2023/09/08 02:54:47;;;;;;;3.70;3.20;;;;;;;25.40;35.10;101148.80;103388;1300;69324;-86
2023/09/08 02:59:59;;;;;;;7.10;5.50;;;;;;;25.40;35.09;101148.50;103008;1293;558454;-86
2023/09/08 03:02:25;;;;;;;8.50;6.10;;;;;;;25.39;34.86;101144.02;103221;1297;69200;-86
2023/09/08 03:04:51;;;;;;;9.70;7.70;;;;;;;25.37;35.08;101145.58;103318;1298;69303;-86
2023/09/08 03:07:16;;;;;;;7.00;5.70;;;;;;;25.32;35.10;101146.85;103168;1297;70432;-86
2023/09/08 03:09:42;;;;;;;7.90;5.60;;;;;;;25.24;35.40;101147.65;103334;1297;69220;-86
2023/09/08 03:12:07;;;;;;;5.30;4.00;;;;;;;25.19;35.34;101153.34;103242;1297;69359;-86
2023/09/08 03:14:33;;;;;;;8.50;3.70;;;;;;;25.15;35.48;101156.14;103311;1297;69147;-86
2023/09/08 03:16:58;;;;;;;5.80;3.50;;;;;;;25.11;35.46;101155.81;103409;1297;69277;-86
2023/09/08 03:19:24;;;;;;;4.50;3.50;;;;;;;25.06;35.62;101155.58;103419;1297;69731;-86
2023/09/08 03:21:49;;;;;;;5.90;3.40;;;;;;;25.02;35.87;101155.61;103244;1297;69079;-84
2023/09/08 03:24:23;;;;;;;6.30;3.80;;;;;;;24.97;35.75;101151.48;103096;1297;69246;-90
2023/09/08 03:26:49;;;;;;;9.50;3.40;;;;;;;24.93;35.97;101150.41;103243;1297;73441;-86
2023/09/08 03:29:15;;;;;;;7.90;3.20;;;;;;;24.90;35.87;101152.18;103327;1297;69287;-86
2023/09/08 03:31:40;;;;;;;4.60;3.40;;;;;;;24.87;35.97;101147.66;103386;1301;69286;-85
2023/09/08 03:34:06;;;;;;;8.30;3.70;;;;;;;24.84;36.10;101150.52;103078;1302;69301;-83
2023/09/08 03:36:35;;;;;;;5.70;3.30;;;;;;;24.82;36.41;101153.14;103276;1297;67260;-85
2023/09/08 03:39:02;;;;;;;8.00;5.90;;;;;;;24.77;36.28;101156.27;103042;1297;348972;-86
2023/09/08 03:41:27;;;;;;;14.30;12.80;;;;;;;24.70;36.19;101153.86;103505;1297;69274;-86
2023/09/08 03:43:53;;;;;;;10.00;5.60;;;;;;;24.64;36.26;101154.70;103189;1297;69334;-85
2023/09/08 03:46:18;;;;;;;8.00;4.80;;;;;;;24.57;36.37;101162.30;103530;1296;69727;-85
2023/09/08 03:48:44;;;;;;;6.60;4.20;;;;;;;24.51;36.40;101165.92;103264;1301;69293;-86
2023/09/08 03:51:17;;;;;;;6.60;3.40;;;;;;;24.44;36.46;101167.84;103664;1297;69241;-91
2023/09/08 03:53:43;;;;;;;7.90;3.80;;;;;;;24.41;36.60;101171.57;103520;1299;69308;-86
2023/09/08 03:56:08;;;;;;;7.30;3.00;;;;;;;24.35;36.56;101172.49;103437;1301;69217;-85
2023/09/08 03:58:34;;;;;;;9.50;3.20;;;;;;;24.30;36.67;101169.70;103354;1297;69168;-85
2023/09/08 04:00:59;;;;;;;5.90;3.50;;;;;;;24.29;36.53;101172.79;103277;1297;69282;-84
2023/09/08 04:03:24;;;;;;;9.10;3.20;;;;;;;24.27;36.67;101171.40;103356;1297;69173;-85
2023/09/08 04:05:50;;;;;;;4.80;2.90;;;;;;;24.24;36.73;101174.85;103234;1297;69281;-85
2023/09/08 04:08:15;;;;;;;6.20;3.50;;;;;;;24.20;36.70;101177.59;103231;1299;69214;-85
2023/09/08 04:10:41;;;;;;;4.00;3.10;;;;;;;24.19;36.69;101174.97;103345;1297;69296;-84
2023/09/08 04:13:06;;;;;;;4.00;2.80;;;;;;;24.18;36.87;101176.27;103332;1297;69285;-85
2023/09/08 04:15:32;;;;;;;6.60;3.20;;;;;;;24.16;36.75;101176.05;103303;1296;69266;-85
2023/09/08 04:20:31;;;;;;;7.00;3.30;;;;;;;24.12;37.08;101180.64;103402;1299;69176;-85
2023/09/08 04:22:56;;;;;;;12.40;9.50;;;;;;;24.11;36.88;101182.13;103209;1297;69278;-86
2023/09/08 04:25:22;;;;;;;6.50;4.50;;;;;;;24.09;36.79;101180.03;103451;1297;69223;-87
2023/09/08 04:27:47;;;;;;;5.50;3.70;;;;;;;24.06;37.03;101180.50;103515;1302;67423;-88
2023/09/08 04:30:13;;;;;;;6.70;3.20;;;;;;;24.04;36.93;101187.59;103279;1305;69237;-86
2023/09/08 04:32:39;;;;;;;13.00;3.30;;;;;;;23.98;37.15;101191.20;103374;1301;69302;-86
2023/09/08 04:35:05;;;;;;;8.50;3.20;;;;;;;23.95;37.04;101191.17;103387;1297;69316;-85
2023/09/08 04:37:30;;;;;;;8.70;3.20;;;;;;;23.88;37.09;101189.98;103388;1297;68428;-86
2023/09/08 04:39:56;;;;;;;9.60;3.30;;;;;;;23.86;37.11;101191.59;103368;1301;69271;-84
2023/09/08 04:42:23;;;;;;;7.00;3.10;;;;;;;23.85;37.07;101194.06;103424;1302;69786;-85
2023/09/08 04:44:48;;;;;;;5.40;3.00;;;;;;;23.84;37.19;101198.84;103262;1297;69168;-84
2023/09/08 04:47:14;;;;;;;4.60;3.30;;;;;;;23.85;37.16;101203.05;103369;1301;69296;-84
2023/09/08 04:49:39;;;;;;;9.30;2.90;;;;;;;23.88;37.14;101200.78;103363;1297;69384;-83
2023/09/08 04:52:05;;;;;;;6.00;3.00;;;;;;;23.90;37.16;101203.57;103357;1297;69248;-83
2023/09/08 04:54:31;;;;;;;6.40;3.00;;;;;;;23.91;37.20;101201.40;103422;1297;69277;-83
2023/09/08 04:56:57;;;;;;;11.80;2.80;;;;;;;23.90;37.08;101203.05;103561;1297;69294;-84
2023/09/08 04:59:23;;;;;;;6.40;2.80;;;;;;;23.93;36.94;101202.23;103746;1296;69243;-84
2023/09/08 05:01:49;;;;;;;9.70;2.80;;;;;;;23.95;37.09;101199.85;103548;1297;69294;-84
2023/09/08 05:04:16;;;;;;;5.00;2.80;;;;;;;23.98;37.03;101200.34;103577;1297;69307;-84
2023/09/08 05:06:42;;;;;;;8.50;3.30;;;;;;;24.00;36.85;101202.20;103704;1297;67045;-83
2023/09/08 05:09:07;;;;;;;14.20;3.10;;;;;;;24.00;36.70;101207.39;103354;1305;69246;-84
2023/09/08 05:11:33;;;;;;;5.90;2.70;;;;;;;23.99;36.81;101205.33;103474;1299;69297;-84
2023/09/08 05:13:58;;;;;;;6.20;3.00;;;;;;;23.99;36.78;101208.98;103684;1298;69827;-83
2023/09/08 05:16:37;;;;;;;7.40;2.90;;;;;;;24.01;36.80;101211.25;103329;1300;69178;-86
2023/09/08 05:19:04;;;;;;;9.30;3.10;;;;;;;24.04;36.62;101214.59;103578;1300;69211;-87
2023/09/08 05:21:31;;;;;;;25.60;3.30;;;;;;;24.04;36.68;101218.70;103523;1299;73458;-87
2023/09/08 05:23:56;;;;;;;7.10;2.60;;;;;;;24.05;36.79;101216.39;103640;1297;69176;-87
2023/09/08 05:26:22;;;;;;;8.60;3.00;;;;;;;24.06;36.59;101216.64;103455;1299;69207;-88
2023/09/08 05:29:02;;;;;;;10.90;2.90;;;;;;;24.06;36.44;101216.79;104468;1293;551608;-92
2023/09/08 05:31:30;;;;;;;9.50;3.00;;;;;;;24.08;36.51;101220.54;104119;1299;69165;-88
2023/09/08 05:33:56;;;;;;;9.40;3.30;;;;;;;24.10;36.67;101214.46;104318;1296;67879;-89
2023/09/08 05:36:22;;;;;;;9.70;3.30;;;;;;;24.13;36.65;101219.91;104170;1303;69262;-89
2023/09/08 05:41:33;;;;;;;12.40;3.30;;;;;;;24.18;36.68;101220.38;104103;1293;545706;-90
2023/09/08 05:43:59;;;;;;;4.60;2.60;;;;;;;24.20;36.64;101224.84;103592;1302;69926;-85
2023/09/08 05:46:24;;;;;;;6.80;3.10;;;;;;;24.21;36.56;101224.67;103715;1297;69210;-86
2023/09/08 05:48:50;;;;;;;8.30;3.00;;;;;;;24.24;36.56;101225.30;104523;1297;69128;-85
2023/09/08 05:51:15;;;;;;;10.50;3.20;;;;;;;24.26;36.60;101223.75;103981;1297;69232;-87
2023/09/08 05:53:49;;;;;;;11.80;6.60;;;;;;;24.27;36.37;101227.61;103443;1297;69025;-92
2023/09/08 05:56:15;;;;;;;10.50;4.60;;;;;;;24.27;36.56;101230.19;104281;1296;73470;-87
2023/09/08 05:58:40;;;;;;;8.70;3.90;;;;;;;24.29;36.52;101227.81;103713;1297;70258;-87
2023/09/08 06:01:07;;;;;;;9.30;3.10;;;;;;;24.31;36.44;101228.47;103618;1297;69351;-87
2023/09/08 06:03:35;;;;;;;9.40;3.60;;;;;;;24.32;36.37;101225.53;104783;1297;67014;-87
2023/09/08 06:06:00;;;;;;;11.90;3.90;;;;;;;24.36;36.25;101230.46;103964;1305;69289;-87
2023/09/08 06:08:26;;;;;;;9.10;4.20;;;;;;;24.39;36.19;101229.84;103826;1297;67330;-87
2023/09/08 06:10:51;;;;;;;9.60;4.60;;;;;;;24.41;36.34;101230.10;103653;1297;69288;-85
2023/09/08 06:13:17;;;;;;;13.20;4.70;;;;;;;24.42;36.37;101229.64;103483;1301;67544;-84
2023/09/08 06:15:42;;;;;;;16.30;4.00;;;;;;;24.44;36.38;101233.44;103419;1300;69307;-84
2023/09/08 06:18:08;;;;;;;11.40;5.40;;;;;;;24.46;36.26;101232.86;103744;1300;69893;-85
2023/09/08 06:20:35;;;;;;;13.00;5.30;;;;;;;24.47;36.27;101235.08;103843;1300;69563;-90
2023/09/08 06:23:01;;;;;;;7.90;5.00;;;;;;;24.48;36.10;101237.90;103906;1302;69242;-84
2023/09/08 06:25:28;;;;;;;9.20;4.90;;;;;;;24.49;36.26;101233.98;104088;1302;69213;-85
2023/09/08 06:27:54;;;;;;;16.60;4.50;;;;;;;24.50;36.02;101237.38;104153;1299;69435;-85
2023/09/08 06:30:19;;;;;;;13.80;4.00;;;;;;;24.51;35.95;101243.45;103831;1302;69290;-85
2023/09/08 06:32:45;;;;;;;9.70;3.70;;;;;;;24.52;36.08;101244.33;103441;1300;69290;-86
2023/09/08 06:35:10;;;;;;;12.10;3.60;;;;;;;24.53;35.80;101246.17;103440;1302;69200;-85
2023/09/08 06:37:37;;;;;;;14.00;3.40;;;;;;;24.55;36.04;101250.38;103426;1300;69382;-85
2023/09/08 06:40:03;;;;;;;8.30;3.10;;;;;;;24.57;35.91;101251.30;103622;1299;69242;-85
2023/09/08 06:42:29;;;;;;;10.20;3.20;;;;;;;24.58;35.79;101251.65;103564;1300;67519;-85
2023/09/08 06:44:54;;;;;;;9.20;3.30;;;;;;;24.59;35.83;101253.55;103728;1299;69315;-85
2023/09/08 06:47:20;;;;;;;10.50;2.80;;;;;;;24.60;35.86;101252.78;103801;1299;69293;-85
2023/09/08 06:49:46;;;;;;;12.80;3.20;;;;;;;24.59;35.69;101254.84;103544;1299;74618;-85
2023/09/08 06:52:12;;;;;;;8.40;3.20;;;;;;;24.59;35.74;101253.04;103534;1301;69169;-84
2023/09/08 06:54:37;;;;;;;7.70;3.50;;;;;;;24.62;35.81;101255.97;103507;1299;69284;-85
2023/09/08 06:57:03;;;;;;;5.60;3.40;;;;;;;24.63;35.71;101258.13;103581;1299;69985;-84
2023/09/08 06:59:30;;;;;;;10.80;3.50;;;;;;;24.65;35.88;101262.03;103470;1300;67440;-90
2023/09/08 07:01:56;;;;;;;8.10;3.30;;;;;;;24.67;35.74;101260.17;103815;1299;69272;-85
2023/09/08 07:04:21;;;;;;;6.70;3.10;;;;;;;24.69;36.10;101256.61;103715;1300;69237;-84
2023/09/08 07:06:47;;;;;;;6.60;3.20;;;;;;;24.71;36.11;101256.17;103556;1299;67673;-84
2023/09/08 07:09:12;;;;;;;8.50;4.10;;;;;;;24.73;35.88;101256.17;103421;1299;69281;-84
2023/09/08 07:11:38;;;;;;;14.80;4.10;;;;;;;24.74;35.83;101251.75;103864;1299;69326;-85
2023/09/08 07:14:04;;;;;;;14.10;4.70;;;;;;;24.75;35.73;101251.69;104045;1304;69695;-84
2023/09/08 07:16:29;;;;;;;11.50;3.90;;;;;;;24.76;35.87;101252.71;104049;1300;69926;-84
2023/09/08 07:19:00;;;;;;;15.70;4.10;;;;;;;24.77;35.86;101256.01;104279;1300;69148;-86
2023/09/08 07:21:26;;;;;;;8.40;3.50;;;;;;;24.79;35.83;101254.96;104450;1305;72825;-87
2023/09/08 07:23:53;;;;;;;12.40;3.90;;;;;;;24.81;35.92;101256.77;104127;1300;69230;-86
2023/09/08 07:26:19;;;;;;;9.30;3.90;;;;;;;24.83;36.03;101258.29;103881;1302;69297;-88
2023/09/08 07:28:45;;;;;;;14.40;3.80;;;;;;;24.84;36.04;101259.58;103215;1303;69278;-85
2023/09/08 07:31:11;;;;;;;12.20;3.30;;;;;;;24.86;36.04;101263.08;103211;1302;69237;-86
2023/09/08 07:33:37;;;;;;;8.40;3.30;;;;;;;24.86;36.03;101261.23;103163;1299;69220;-85
2023/09/08 07:36:05;;;;;;;8.00;3.60;;;;;;;24.88;35.99;101263.17;103250;1299;69369;-86
2023/09/08 07:38:31;;;;;;;8.50;3.50;;;;;;;24.89;36.00;101260.91;103315;1300;69316;-85
2023/09/08 07:40:56;;;;;;;8.70;3.40;;;;;;;24.90;36.02;101261.41;103313;1298;69294;-86
2023/09/08 07:43:22;;;;;;;11.20;3.80;;;;;;;24.91;36.23;101259.60;103695;1300;69710;-85
2023/09/08 07:45:47;;;;;;;8.60;3.40;;;;;;;24.93;36.11;101263.71;103466;1299;69181;-85
2023/09/08 07:48:13;;;;;;;12.80;3.80;;;;;;;24.94;36.07;101265.30;103246;1303;69322;-86
2023/09/08 07:50:38;;;;;;;15.40;4.20;;;;;;;24.97;36.21;101263.95;103248;1299;69277;-85
2023/09/08 07:53:04;;;;;;;20.00;4.20;;;;;;;25.00;36.37;101268.43;103207;1300;69317;-77
2023/09/08 07:55:29;;;;;;;14.20;4.20;;;;;;;25.02;36.15;101269.65;102461;1300;69296;-85
2023/09/08 07:57:55;;;;;;;14.00;4.40;;;;;;;25.04;36.32;101271.59;103332;1300;69261;-86
2023/09/08 08:00:20;;;;;;;17.00;4.30;;;;;;;25.05;36.65;101270.20;103278;1299;69046;-86
2023/09/08 08:02:50;;;;;;;18.60;8.60;;;;;;;25.06;36.53;101270.96;103305;1299;69213;-86
2023/09/08 08:05:16;;;;;;;14.40;9.60;;;;;;;25.07;36.28;101269.98;103475;1299;73383;-85
2023/09/08 08:07:42;;;;;;;15.50;9.60;;;;;;;25.09;36.50;101270.45;103304;1302;69255;-86
2023/09/08 08:10:08;;;;;;;16.90;8.90;;;;;;;25.10;36.41;101270.84;103227;1299;69294;-86
2023/09/08 08:12:34;;;;;;;15.10;7.60;;;;;;;25.11;36.60;101268.63;103291;1305;69258;-86
2023/09/08 08:15:00;;;;;;;15.00;6.80;;;;;;;25.13;36.69;101267.80;103503;1299;69737;-86
2023/09/08 08:17:27;;;;;;;12.10;6.50;;;;;;;25.14;36.67;101268.11;103439;1301;67308;-84
2023/09/08 08:19:53;;;;;;;10.70;5.10;;;;;;;25.15;36.71;101261.25;103312;1302;69204;-85
2023/09/08 08:22:19;;;;;;;14.20;6.80;;;;;;;25.16;37.14;101260.67;103381;1305;69147;-85
2023/09/08 08:24:45;;;;;;;13.30;5.50;;;;;;;25.17;37.13;101260.16;103375;1305;69272;-85
2023/09/08 08:27:10;;;;;;;11.20;5.20;;;;;;;25.18;36.97;101260.66;103414;1300;69275;-86
2023/09/08 08:29:36;;;;;;;13.70;5.80;;;;;;;25.19;37.07;101258.95;103414;1302;69316;-85
2023/09/08 08:32:05;;;;;;;10.30;4.90;;;;;;;25.21;37.16;101260.45;103474;1302;69038;-89
2023/09/08 08:34:31;;;;;;;8.30;4.70;;;;;;;25.21;37.12;101261.78;103312;1305;69166;-84
2023/09/08 08:36:56;;;;;;;10.00;4.70;;;;;;;25.22;37.02;101261.01;103393;1305;69374;-85
2023/09/08 08:39:22;;;;;;;10.60;4.90;;;;;;;25.23;37.08;101266.20;103442;1303;69286;-85
2023/09/08 08:41:47;;;;;;;11.80;5.30;;;;;;;25.24;37.20;101266.41;103760;1298;69247;-85
2023/09/08 08:44:13;;;;;;;12.60;4.40;;;;;;;25.26;37.09;101268.30;103697;1300;69227;-88
2023/09/08 08:46:38;;;;;;;14.40;7.00;;;;;;;25.28;36.68;101271.52;103310;1304;69329;-86
2023/09/08 08:49:04;;;;;;;10.80;5.90;;;;;;;25.30;36.53;101267.45;103439;1304;69208;-87
2023/09/08 08:51:33;;;;;;;11.00;5.40;;;;;;;25.32;36.74;101271.96;103257;1299;67242;-86
2023/09/08 08:54:04;;;;;;;8.10;4.90;;;;;;;25.33;36.52;101267.63;103161;1303;69270;-86
2023/09/08 08:56:30;;;;;;;10.70;4.20;;;;;;;25.34;36.50;101269.53;103319;1305;69235;-86
2023/09/08 08:59:03;;;;;;;12.70;3.40;;;;;;;25.35;36.13;101267.05;103482;1298;73577;-91
2023/09/08 09:01:29;;;;;;;16.00;3.50;;;;;;;25.36;35.92;101265.62;103428;1303;69214;-86
2023/09/08 09:03:54;;;;;;;7.50;3.30;;;;;;;25.37;35.92;101263.91;103716;1299;69290;-88
2023/09/08 09:06:20;;;;;;;9.40;3.20;;;;;;;25.39;35.77;101260.51;103554;1303;69271;-88
2023/09/08 09:08:46;;;;;;;7.60;4.10;;;;;;;25.42;35.91;101260.48;103696;1299;69427;-88
2023/09/08 09:11:12;;;;;;;21.60;13.20;;;;;;;25.43;35.70;101259.93;103775;1299;67379;-87
2023/09/08 09:13:38;;;;;;;13.30;6.40;;;;;;;25.45;35.43;101254.36;103484;1303;69313;-87
2023/09/08 09:16:07;;;;;;;9.20;4.30;;;;;;;25.46;35.13;101262.09;103527;1299;69295;-87
2023/09/08 09:18:33;;;;;;;9.00;4.00;;;;;;;25.47;35.03;101260.36;103553;1299;67279;-87
2023/09/08 09:21:00;;;;;;;8.60;3.60;;;;;;;25.49;35.12;101260.01;103482;1302;69254;-85
2023/09/08 09:23:33;;;;;;;13.80;4.50;;;;;;;25.51;35.04;101252.00;103504;1299;70439;-85
2023/09/08 09:25:59;;;;;;;9.00;3.50;;;;;;;25.52;34.98;101250.59;103891;1298;69130;-86
2023/09/08 09:28:25;;;;;;;7.00;4.20;;;;;;;25.54;34.69;101250.02;104671;1301;70030;-87
2023/09/08 09:30:52;;;;;;;11.30;3.60;;;;;;;25.55;34.74;101254.86;103599;1306;69172;-88
2023/09/08 09:33:20;;;;;;;9.50;4.60;;;;;;;25.57;34.51;101248.14;103602;1300;75795;-87
2023/09/08 09:35:51;;;;;;;6.80;3.20;;;;;;;25.59;34.61;101250.81;103404;1305;69312;-88
2023/09/08 09:38:18;;;;;;;12.50;3.70;;;;;;;25.60;34.41;101253.89;103607;1300;69125;-88
2023/09/08 09:40:45;;;;;;;4.70;3.20;;;;;;;25.60;34.04;101249.83;103635;1304;68791;-88
2023/09/08 09:43:11;;;;;;;9.30;3.00;;;;;;;25.61;33.86;101249.46;103593;1298;69236;-88
2023/09/08 09:45:37;;;;;;;16.50;6.80;;;;;;;25.60;33.90;101243.02;103384;1299;74346;-87
2023/09/08 09:48:04;;;;;;;13.90;11.30;;;;;;;25.62;33.72;101243.52;103392;1305;69204;-87
2023/09/08 09:50:33;;;;;;;8.80;6.50;;;;;;;25.62;33.60;101244.46;103464;1299;70644;-88
2023/09/08 09:53:01;;;;;;;6.70;5.50;;;;;;;25.62;33.41;101241.67;103584;1299;69335;-88
2023/09/08 09:55:27;;;;;;;7.80;3.40;;;;;;;25.63;33.53;101246.77;103714;1299;69208;-87
2023/09/08 09:58:03;;;;;;;8.30;3.30;;;;;;;25.63;33.31;101243.98;103352;1299;69283;-87
2023/09/08 10:00:29;;;;;;;7.30;3.00;;;;;;;25.64;33.25;101240.52;103435;1298;69781;-87
2023/09/08 10:02:55;;;;;;;6.30;2.80;;;;;;;25.64;33.30;101236.75;103524;1299;69223;-88
2023/09/08 10:05:20;;;;;;;11.10;3.10;;;;;;;25.66;33.27;101232.52;103635;1303;69396;-87
2023/09/08 10:08:00;;;;;;;7.50;2.70;;;;;;;25.67;33.19;101239.41;104048;1299;69211;-93
2023/09/08 10:10:26;;;;;;;5.30;3.10;;;;;;;25.68;33.25;101240.29;104198;1299;73611;-87
2023/09/08 10:12:52;;;;;;;7.80;4.00;;;;;;;25.70;33.31;101237.49;105088;1299;69070;-87
2023/09/08 10:15:23;;;;;;;8.50;3.30;;;;;;;25.72;33.18;101235.73;104175;1299;69278;-88
2023/09/08 10:17:56;;;;;;;7.40;2.90;;;;;;;25.73;33.22;101232.20;104147;1299;69148;-88
2023/09/08 10:20:23;;;;;;;4.90;2.80;;;;;;;25.74;33.17;101227.41;103256;1305;69163;-87
2023/09/08 10:23:09;;;;;;;10.70;2.90;;;;;;;25.77;33.11;101231.77;103484;1298;73865;-92
2023/09/08 10:25:35;;;;;;;7.60;3.10;;;;;;;25.77;33.18;101223.30;103230;1300;69213;-87
2023/09/08 10:28:12;;;;;;;11.10;3.30;;;;;;;25.78;33.20;101225.30;104107;1294;538432;-86
2023/09/08 10:30:38;;;;;;;3.30;2.90;;;;;;;25.80;33.09;101224.41;103587;1299;69266;-86
2023/09/08 10:33:04;;;;;;;5.00;2.50;;;;;;;25.80;32.99;101222.45;103653;1297;69217;-86
2023/09/08 10:35:29;;;;;;;7.10;3.00;;;;;;;25.81;32.78;101228.02;103761;1301;69240;-86
2023/09/08 10:38:24;;;;;;;3.90;2.70;;;;;;;25.82;32.96;101230.02;103526;1298;69301;-86
2023/09/08 10:40:50;;;;;;;4.60;2.70;;;;;;;25.82;32.70;101227.75;103560;1297;69206;-87
2023/09/08 10:43:17;;;;;;;6.30;2.50;;;;;;;25.82;32.86;101225.06;103450;1302;69149;-86
2023/09/08 10:45:43;;;;;;;7.90;3.10;;;;;;;25.82;32.88;101226.77;103438;1302;74736;-86
2023/09/08 10:48:09;;;;;;;5.50;2.60;;;;;;;25.83;32.87;101227.02;103540;1297;69342;-86
2023/09/08 10:50:36;;;;;;;7.00;2.70;;;;;;;25.84;32.85;101232.89;103414;1298;69204;-85
2023/09/08 10:53:07;;;;;;;5.10;2.40;;;;;;;25.85;33.04;101228.66;103623;1302;69265;-86
2023/09/08 10:55:47;;;;;;;4.20;2.10;;;;;;;25.86;32.77;101226.08;103421;1297;69248;-91
2023/09/08 10:58:43;;;;;;;5.30;2.40;;;;;;;25.87;32.54;101222.88;103422;1297;74335;-85
2023/09/08 11:01:13;;;;;;;3.60;2.20;;;;;;;25.87;32.40;101216.48;103419;1297;69085;-85
2023/09/08 11:03:39;;;;;;;4.50;2.60;;;;;;;25.87;32.35;101214.15;103599;1297;69823;-86
2023/09/08 11:06:05;;;;;;;9.90;2.90;;;;;;;25.88;32.28;101211.98;103647;1297;69268;-86
2023/09/08 11:08:32;;;;;;;6.70;2.60;;;;;;;25.89;32.16;101203.10;103692;1297;69265;-87
2023/09/08 11:10:57;;;;;;;6.30;2.80;;;;;;;25.89;32.25;101200.58;103677;1300;69179;-87
2023/09/08 11:13:23;;;;;;;6.00;2.90;;;;;;;25.90;32.50;101202.52;103701;1297;69275;-86
2023/09/08 11:15:55;;;;;;;6.50;2.60;;;;;;;25.90;32.37;101200.71;103626;1301;69248;-86
2023/09/08 11:18:30;;;;;;;6.10;2.70;;;;;;;25.91;32.07;101198.39;103801;1297;69108;-87
2023/09/08 11:20:56;;;;;;;7.00;2.50;;;;;;;25.92;32.29;101193.02;103982;1299;67190;-86
2023/09/08 11:23:22;;;;;;;5.90;2.60;;;;;;;25.93;32.44;101196.98;103837;1302;67315;-87